Time,TemperatureF,DewpointF,PressureIn,WindDirection,WindDirectionDegrees,WindSpeedMPH,WindSpeedGustMPH,Humidity,HourlyPrecipIn,Conditions,Clouds,dailyrainin,SoftwareType,DateUTC
2013-02-02 00:00:00,20.5,8.1,30.42,West,267,0.0,4.0,58,0.00,,,0.00,HR-IXPWINDi_r2_v1.2.,2013-02-02 05:00:00,
2013-02-02 00:05:00,20.5,8.9,30.42,SW,215,0.0,4.0,60,0.00,,,0.00,HR-IXPWINDi_r2_v1.2.,2013-02-02 05:05:00,
2013-02-02 00:10:00,20.4,8.0,30.42,NNE,28,0.0,4.0,58,0.00,,,0.00,HR-IXPWINDi_r2_v1.2.,2013-02-02 05:10:00,
2013-02-02 00:15:00,20.3,8.3,30.42,NNE,28,0.0,3.0,59,0.00,,,0.00,HR-IXPWINDi_r2_v1.2.,2013-02-02 05:15:00,
2013-02-02 00:20:00,20.2,8.6,30.42,NNE,28,0.0,1.0,60,0.00,,,0.00,HR-IXPWINDi_r2_v1.2.,2013-02-02 05:20:00,
2013-02-02 00:25:00,20.1,8.5,30.42,NNE,28,0.0,1.0,60,0.00,,,0.00,HR-IXPWINDi_r2_v1.2.,2013-02-02 05:25:00,
2013-02-02 00:30:00,20.0,8.8,30.42,NNE,28,0.0,1.0,61,0.00,,,0.00,HR-IXPWINDi_r2_v1.2.,2013-02-02 05:30:00,
2013-02-02 00:35:00,19.8,8.6,30.42,NNE,28,0.0,1.0,61,0.00,,,0.00,HR-IXPWINDi_r2_v1.2.,2013-02-02 05:35:00,
2013-02-02 00:40:00,19.7,8.5,30.43,NNE,28,0.0,1.0,61,0.00,,,0.00,HR-IXPWINDi_r2_v1.2.,2013-02-02 05:40:00,
2013-02-02 00:45:00,19.6,8.4,30.43,NNE,28,0.0,1.0,61,0.00,,,0.00,HR-IXPWINDi_r2_v1.2.,2013-02-02 05:45:00,
2013-02-02 00:51:00,19.4,8.6,30.43,NNE,28,0.0,1.0,62,0.00,,,0.00,HR-IXPWINDi_r2_v1.2.,2013-02-02 05:51:00,
2013-02-02 00:56:00,19.1,9.0,30.43,NNE,28,0.0,1.0,64,0.00,,,0.00,HR-IXPWINDi_r2_v1.2.,2013-02-02 05:56:00,
2013-02-02 01:01:00,18.9,9.1,30.43,NNE,28,0.0,0.0,65,0.00,,,0.00,HR-IXPWINDi_r2_v1.2.,2013-02-02 06:01:00,
2013-02-02 01:06:00,18.7,9.3,30.43,NNE,28,0.0,0.0,66,0.00,,,0.00,HR-IXPWINDi_r2_v1.2.,2013-02-02 06:06:00,
2013-02-02 01:11:00,18.5,9.4,30.43,NNE,28,0.0,0.0,67,0.00,,,0.00,HR-IXPWINDi_r2_v1.2.,2013-02-02 06:11:00,
2013-02-02 01:16:00,18.3,9.9,30.43,NNE,28,0.0,0.0,69,0.00,,,0.00,HR-IXPWINDi_r2_v1.2.,2013-02-02 06:16:00,
2013-02-02 01:21:00,18.1,10.0,30.42,NNE,28,0.0,0.0,70,0.00,,,0.00,HR-IXPWINDi_r2_v1.2.,2013-02-02 06:21:00,
2013-02-02 01:26:00,18.0,10.2,30.42,NNE,28,0.0,0.0,71,0.00,,,0.00,HR-IXPWINDi_r2_v1.2.,2013-02-02 06:26:00,
2013-02-02 01:31:00,17.7,9.6,30.42,NNE,28,0.0,0.0,70,0.00,,,0.00,HR-IXPWINDi_r2_v1.2.,2013-02-02 06:31:00,
2013-02-02 01:37:00,17.6,9.5,30.42,NNE,28,0.0,0.0,70,0.00,,,0.00,HR-IXPWINDi_r2_v1.2.,2013-02-02 06:37:00,
2013-02-02 01:42:00,17.5,9.8,30.42,NNE,28,0.0,0.0,71,0.00,,,0.00,HR-IXPWINDi_r2_v1.2.,2013-02-02 06:42:00,
2013-02-02 01:48:00,17.5,9.1,30.42,NNE,28,0.0,1.0,69,0.00,,,0.00,HR-IXPWINDi_r2_v1.2.,2013-02-02 06:48:00,
2013-02-02 01:53:00,17.6,9.5,30.42,NNE,28,0.0,1.0,70,0.00,,,0.00,HR-IXPWINDi_r2_v1.2.,2013-02-02 06:53:00,
2013-02-02 01:58:00,17.8,9.7,30.42,NNE,28,0.0,1.0,70,0.00,,,0.00,HR-IXPWINDi_r2_v1.2.,2013-02-02 06:58:00,
2013-02-02 02:03:00,17.9,10.1,30.42,NNE,28,0.0,1.0,71,0.00,,,0.00,HR-IXPWINDi_r2_v1.2.,2013-02-02 07:03:00,
2013-02-02 02:09:00,17.9,9.5,30.42,NE,39,0.0,1.0,69,0.00,,,0.00,HR-IXPWINDi_r2_v1.2.,2013-02-02 07:09:00,
2013-02-02 02:14:00,18.0,9.6,30.42,NE,39,0.0,1.0,69,0.00,,,0.00,HR-IXPWINDi_r2_v1.2.,2013-02-02 07:14:00,
2013-02-02 02:19:00,17.9,11.1,30.42,NE,39,0.0,0.0,74,0.00,,,0.00,HR-IXPWINDi_r2_v1.2.,2013-02-02 07:19:00,
2013-02-02 02:24:00,17.7,10.9,30.42,NE,39,0.0,0.0,74,0.00,,,0.00,HR-IXPWINDi_r2_v1.2.,2013-02-02 07:24:00,
2013-02-02 02:29:00,17.5,11.0,30.42,NE,39,0.0,0.0,75,0.00,,,0.00,HR-IXPWINDi_r2_v1.2.,2013-02-02 07:29:00,
2013-02-02 02:34:00,17.5,10.7,30.42,NE,39,0.0,1.0,74,0.00,,,0.00,HR-IXPWINDi_r2_v1.2.,2013-02-02 07:34:00,
2013-02-02 02:40:00,17.4,10.9,30.41,NE,39,0.0,1.0,75,0.00,,,0.00,HR-IXPWINDi_r2_v1.2.,2013-02-02 07:40:00,
2013-02-02 02:45:00,17.3,10.5,30.42,NE,39,0.0,0.0,74,0.00,,,0.00,HR-IXPWINDi_r2_v1.2.,2013-02-02 07:45:00,
2013-02-02 02:50:00,17.3,9.9,30.41,NE,39,0.0,1.0,72,0.00,,,0.00,HR-IXPWINDi_r2_v1.2.,2013-02-02 07:50:00,
2013-02-02 02:56:00,17.4,9.3,30.41,NE,39,0.0,1.0,70,0.00,,,0.00,HR-IXPWINDi_r2_v1.2.,2013-02-02 07:56:00,
2013-02-02 03:01:00,17.6,9.2,30.41,NE,39,0.0,0.0,69,0.00,,,0.00,HR-IXPWINDi_r2_v1.2.,2013-02-02 08:01:00,
2013-02-02 03:06:00,17.7,9.0,30.41,NE,39,0.0,1.0,68,0.00,,,0.00,HR-IXPWINDi_r2_v1.2.,2013-02-02 08:06:00,
2013-02-02 03:11:00,17.8,9.7,30.41,NE,39,0.0,1.0,70,0.00,,,0.00,HR-IXPWINDi_r2_v1.2.,2013-02-02 08:11:00,
2013-02-02 03:16:00,17.8,9.7,30.41,NE,39,0.0,0.0,70,0.00,,,0.00,HR-IXPWINDi_r2_v1.2.,2013-02-02 08:16:00,
2013-02-02 03:21:00,17.7,9.3,30.42,NE,39,0.0,0.0,69,0.00,,,0.00,HR-IXPWINDi_r2_v1.2.,2013-02-02 08:21:00,
2013-02-02 03:27:00,17.5,9.8,30.42,NE,39,0.0,0.0,71,0.00,,,0.00,HR-IXPWINDi_r2_v1.2.,2013-02-02 08:27:00,
2013-02-02 03:32:00,17.4,9.7,30.41,NE,39,0.0,0.0,71,0.00,,,0.00,HR-IXPWINDi_r2_v1.2.,2013-02-02 08:32:00,
2013-02-02 03:37:00,17.3,9.6,30.41,NE,39,0.0,0.0,71,0.00,,,0.00,HR-IXPWINDi_r2_v1.2.,2013-02-02 08:37:00,
2013-02-02 03:42:00,17.1,10.0,30.42,NE,39,0.0,0.0,73,0.00,,,0.00,HR-IXPWINDi_r2_v1.2.,2013-02-02 08:42:00,
2013-02-02 03:47:00,17.0,9.9,30.41,NE,39,0.0,0.0,73,0.00,,,0.00,HR-IXPWINDi_r2_v1.2.,2013-02-02 08:47:00,
2013-02-02 03:53:00,16.8,10.0,30.41,NE,39,0.0,0.0,74,0.00,,,0.00,HR-IXPWINDi_r2_v1.2.,2013-02-02 08:53:00,
2013-02-02 03:58:00,16.6,10.4,30.41,NE,39,0.0,0.0,76,0.00,,,0.00,HR-IXPWINDi_r2_v1.2.,2013-02-02 08:58:00,
2013-02-02 04:03:00,16.5,10.9,30.41,NE,39,0.0,0.0,78,0.00,,,0.00,HR-IXPWINDi_r2_v1.2.,2013-02-02 09:03:00,
2013-02-02 04:08:00,16.4,10.8,30.41,NE,39,0.0,1.0,78,0.00,,,0.00,HR-IXPWINDi_r2_v1.2.,2013-02-02 09:08:00,
2013-02-02 04:13:00,16.6,11.0,30.41,NE,39,0.0,1.0,78,0.00,,,0.00,HR-IXPWINDi_r2_v1.2.,2013-02-02 09:13:00,
2013-02-02 04:19:00,16.8,10.9,30.41,NE,39,0.0,1.0,77,0.00,,,0.00,HR-IXPWINDi_r2_v1.2.,2013-02-02 09:19:00,
2013-02-02 04:24:00,16.9,11.0,30.41,NE,39,0.0,1.0,77,0.00,,,0.00,HR-IXPWINDi_r2_v1.2.,2013-02-02 09:24:00,
2013-02-02 04:29:00,17.0,10.5,30.41,NE,39,0.0,0.0,75,0.00,,,0.00,HR-IXPWINDi_r2_v1.2.,2013-02-02 09:29:00,
2013-02-02 04:34:00,17.2,10.4,30.41,NE,41,0.0,1.0,74,0.00,,,0.00,HR-IXPWINDi_r2_v1.2.,2013-02-02 09:34:00,
2013-02-02 04:39:00,17.4,10.6,30.41,NE,41,0.0,1.0,74,0.00,,,0.00,HR-IXPWINDi_r2_v1.2.,2013-02-02 09:39:00,
2013-02-02 04:44:00,17.7,11.2,30.41,NNW,329,0.0,2.0,75,0.00,,,0.00,HR-IXPWINDi_r2_v1.2.,2013-02-02 09:44:00,
2013-02-02 04:49:00,17.8,10.7,30.41,NNW,329,0.0,2.0,73,0.00,,,0.00,HR-IXPWINDi_r2_v1.2.,2013-02-02 09:49:00,
2013-02-02 04:54:00,17.9,10.8,30.41,NNW,329,0.0,1.0,73,0.00,,,0.00,HR-IXPWINDi_r2_v1.2.,2013-02-02 09:54:00,
2013-02-02 05:00:00,18.0,10.2,30.41,NNW,329,0.0,2.0,71,0.00,,,0.00,HR-IXPWINDi_r2_v1.2.,2013-02-02 10:00:00,
2013-02-02 05:05:00,18.2,10.4,30.41,NNW,329,0.0,2.0,71,0.00,,,0.00,HR-IXPWINDi_r2_v1.2.,2013-02-02 10:05:00,
2013-02-02 05:10:00,18.3,10.2,30.40,NNW,329,0.0,1.0,70,0.00,,,0.00,HR-IXPWINDi_r2_v1.2.,2013-02-02 10:10:00,
2013-02-02 05:15:00,18.4,10.3,30.41,SE,146,1.0,4.0,70,0.00,,,0.00,HR-IXPWINDi_r2_v1.2.,2013-02-02 10:15:00,
2013-02-02 05:20:00,18.5,10.7,30.41,SE,146,1.0,4.0,71,0.00,,,0.00,HR-IXPWINDi_r2_v1.2.,2013-02-02 10:20:00,
2013-02-02 05:25:00,18.4,10.3,30.40,SE,146,0.0,2.0,70,0.00,,,0.00,HR-IXPWINDi_r2_v1.2.,2013-02-02 10:25:00,
2013-02-02 05:31:00,18.4,10.6,30.40,SE,138,0.0,2.0,71,0.00,,,0.00,HR-IXPWINDi_r2_v1.2.,2013-02-02 10:31:00,
2013-02-02 05:36:00,18.4,10.6,30.40,SE,138,0.0,2.0,71,0.00,,,0.00,HR-IXPWINDi_r2_v1.2.,2013-02-02 10:36:00,
2013-02-02 05:41:00,18.2,10.4,30.41,SE,138,0.0,1.0,71,0.00,,,0.00,HR-IXPWINDi_r2_v1.2.,2013-02-02 10:41:00,
2013-02-02 05:46:00,18.2,10.4,30.40,SE,138,0.0,1.0,71,0.00,,,0.00,HR-IXPWINDi_r2_v1.2.,2013-02-02 10:46:00,
2013-02-02 05:51:00,18.0,10.6,30.41,SE,138,0.0,0.0,72,0.00,,,0.00,HR-IXPWINDi_r2_v1.2.,2013-02-02 10:51:00,
2013-02-02 05:56:00,17.8,10.4,30.41,SE,138,0.0,0.0,72,0.00,,,0.00,HR-IXPWINDi_r2_v1.2.,2013-02-02 10:56:00,
2013-02-02 06:01:00,17.6,10.2,30.40,SE,138,0.0,1.0,72,0.00,,,0.00,HR-IXPWINDi_r2_v1.2.,2013-02-02 11:01:00,
2013-02-02 06:07:00,17.5,10.4,30.40,SE,138,0.0,1.0,73,0.00,,,0.00,HR-IXPWINDi_r2_v1.2.,2013-02-02 11:07:00,
2013-02-02 06:12:00,17.4,10.0,30.40,SE,138,0.0,1.0,72,0.00,,,0.00,HR-IXPWINDi_r2_v1.2.,2013-02-02 11:12:00,
2013-02-02 06:17:00,17.3,10.8,30.40,SE,138,0.0,1.0,75,0.00,,,0.00,HR-IXPWINDi_r2_v1.2.,2013-02-02 11:17:00,
2013-02-02 06:22:00,17.1,10.3,30.41,SE,138,0.0,0.0,74,0.00,,,0.00,HR-IXPWINDi_r2_v1.2.,2013-02-02 11:22:00,
2013-02-02 06:27:00,17.0,10.5,30.41,SE,138,0.0,1.0,75,0.00,,,0.00,HR-IXPWINDi_r2_v1.2.,2013-02-02 11:27:00,
2013-02-02 06:32:00,16.7,10.2,30.40,SE,138,0.0,1.0,75,0.00,,,0.00,HR-IXPWINDi_r2_v1.2.,2013-02-02 11:32:00,
2013-02-02 06:37:00,16.6,10.4,30.40,SE,138,0.0,1.0,76,0.00,,,0.00,HR-IXPWINDi_r2_v1.2.,2013-02-02 11:37:00,
2013-02-02 06:42:00,16.4,10.5,30.41,SE,138,0.0,1.0,77,0.00,,,0.00,HR-IXPWINDi_r2_v1.2.,2013-02-02 11:42:00,
2013-02-02 06:47:00,16.3,10.4,30.41,SE,138,0.0,0.0,77,0.00,,,0.00,HR-IXPWINDi_r2_v1.2.,2013-02-02 11:47:00,
2013-02-02 06:53:00,16.2,10.6,30.41,SE,138,0.0,0.0,78,0.00,,,0.00,HR-IXPWINDi_r2_v1.2.,2013-02-02 11:53:00,
2013-02-02 06:58:00,16.1,10.5,30.41,SE,138,0.0,0.0,78,0.00,,,0.00,HR-IXPWINDi_r2_v1.2.,2013-02-02 11:58:00,
2013-02-02 07:03:00,16.0,10.7,30.41,SE,138,0.0,0.0,79,0.00,,,0.00,HR-IXPWINDi_r2_v1.2.,2013-02-02 12:03:00,
2013-02-02 07:08:00,15.9,10.3,30.41,SE,138,0.0,0.0,78,0.00,,,0.00,HR-IXPWINDi_r2_v1.2.,2013-02-02 12:08:00,
2013-02-02 07:13:00,15.8,10.2,30.41,SE,138,0.0,0.0,78,0.00,,,0.00,HR-IXPWINDi_r2_v1.2.,2013-02-02 12:13:00,
2013-02-02 07:18:00,15.7,10.1,30.41,SE,138,0.0,0.0,78,0.00,,,0.00,HR-IXPWINDi_r2_v1.2.,2013-02-02 12:18:00,
2013-02-02 07:24:00,15.8,10.2,30.41,SE,138,0.0,1.0,78,0.00,,,0.00,HR-IXPWINDi_r2_v1.2.,2013-02-02 12:24:00,
2013-02-02 07:29:00,15.8,10.5,30.41,SE,138,0.0,1.0,79,0.00,,,0.00,HR-IXPWINDi_r2_v1.2.,2013-02-02 12:29:00,
2013-02-02 07:34:00,15.8,10.5,30.41,SE,138,0.0,0.0,79,0.00,,,0.00,HR-IXPWINDi_r2_v1.2.,2013-02-02 12:34:00,
2013-02-02 07:39:00,15.9,10.9,30.41,SE,138,0.0,0.0,80,0.00,,,0.00,HR-IXPWINDi_r2_v1.2.,2013-02-02 12:39:00,
2013-02-02 07:45:00,15.9,10.9,30.41,SE,138,0.0,1.0,80,0.00,,,0.00,HR-IXPWINDi_r2_v1.2.,2013-02-02 12:45:00,
2013-02-02 07:50:00,16.0,11.3,30.41,SE,138,0.0,1.0,81,0.00,,,0.00,HR-IXPWINDi_r2_v1.2.,2013-02-02 12:50:00,
2013-02-02 07:55:00,16.0,11.0,30.41,SE,138,0.0,0.0,80,0.00,,,0.00,HR-IXPWINDi_r2_v1.2.,2013-02-02 12:55:00,
2013-02-02 08:00:00,16.1,11.1,30.41,SE,138,0.0,0.0,80,0.00,,,0.00,HR-IXPWINDi_r2_v1.2.,2013-02-02 13:00:00,
2013-02-02 08:05:00,16.3,11.0,30.41,SE,138,0.0,0.0,79,0.00,,,0.00,HR-IXPWINDi_r2_v1.2.,2013-02-02 13:05:00,
2013-02-02 08:11:00,16.7,11.9,30.41,SE,138,0.0,1.0,81,0.00,,,0.00,HR-IXPWINDi_r2_v1.2.,2013-02-02 13:11:00,
2013-02-02 08:16:00,17.0,12.2,30.42,SE,138,0.0,1.0,81,0.00,,,0.00,HR-IXPWINDi_r2_v1.2.,2013-02-02 13:16:00,
2013-02-02 08:21:00,17.4,12.0,30.42,SE,138,0.0,1.0,79,0.00,,,0.00,HR-IXPWINDi_r2_v1.2.,2013-02-02 13:21:00,
2013-02-02 08:26:00,17.9,12.5,30.42,SE,138,1.0,1.0,79,0.00,,,0.00,HR-IXPWINDi_r2_v1.2.,2013-02-02 13:26:00,
2013-02-02 08:31:00,18.4,12.4,30.42,SE,136,0.0,1.0,77,0.00,,,0.00,HR-IXPWINDi_r2_v1.2.,2013-02-02 13:31:00,
2013-02-02 08:36:00,19.0,12.4,30.42,SE,136,1.0,1.0,75,0.00,,,0.00,HR-IXPWINDi_r2_v1.2.,2013-02-02 13:36:00,
2013-02-02 08:41:00,19.5,12.9,30.41,SE,136,0.0,2.0,75,0.00,,,0.00,HR-IXPWINDi_r2_v1.2.,2013-02-02 13:41:00,
2013-02-02 08:47:00,20.0,12.8,30.41,SE,136,0.0,2.0,73,0.00,,,0.00,HR-IXPWINDi_r2_v1.2.,2013-02-02 13:47:00,
2013-02-02 08:52:00,20.6,12.4,30.41,ESE,106,2.0,5.0,70,0.00,,,0.00,HR-IXPWINDi_r2_v1.2.,2013-02-02 13:52:00,
2013-02-02 08:57:00,21.1,11.9,30.41,ESE,103,1.0,5.0,67,0.00,,,0.00,HR-IXPWINDi_r2_v1.2.,2013-02-02 13:57:00,
2013-02-02 09:03:00,21.5,12.6,30.41,ESE,103,0.0,5.0,68,0.00,,,0.00,HR-IXPWINDi_r2_v1.2.,2013-02-02 14:03:00,
2013-02-02 09:08:00,21.8,12.2,30.41,ESE,110,2.0,2.0,66,0.00,,,0.00,HR-IXPWINDi_r2_v1.2.,2013-02-02 14:08:00,
2013-02-02 09:13:00,22.1,12.5,30.40,ESE,109,0.0,3.0,66,0.00,,,0.00,HR-IXPWINDi_r2_v1.2.,2013-02-02 14:13:00,
2013-02-02 09:18:00,22.5,12.6,30.40,ESE,113,1.0,3.0,65,0.00,,,0.00,HR-IXPWINDi_r2_v1.2.,2013-02-02 14:18:00,
2013-02-02 09:23:00,22.9,12.6,30.40,ESE,113,0.0,2.0,64,0.00,,,0.00,HR-IXPWINDi_r2_v1.2.,2013-02-02 14:23:00,
2013-02-02 09:28:00,23.2,12.9,30.39,ESE,102,1.0,2.0,64,0.00,,,0.00,HR-IXPWINDi_r2_v1.2.,2013-02-02 14:28:00,
2013-02-02 09:34:00,23.7,13.3,30.39,ESE,103,0.0,2.0,64,0.00,,,0.00,HR-IXPWINDi_r2_v1.2.,2013-02-02 14:34:00,
2013-02-02 09:39:00,24.1,13.0,30.39,ESE,103,0.0,2.0,62,0.00,,,0.00,HR-IXPWINDi_r2_v1.2.,2013-02-02 14:39:00,
2013-02-02 09:44:00,24.3,14.3,30.39,ESE,103,0.0,2.0,65,0.00,,,0.00,HR-IXPWINDi_r2_v1.2.,2013-02-02 14:44:00,
2013-02-02 09:50:00,24.6,13.8,30.38,ESE,109,4.0,4.0,63,0.00,,,0.00,HR-IXPWINDi_r2_v1.2.,2013-02-02 14:50:00,
2013-02-02 09:55:00,24.6,13.5,30.38,East,96,3.0,4.0,62,0.00,,,0.00,HR-IXPWINDi_r2_v1.2.,2013-02-02 14:55:00,
2013-02-02 10:00:00,24.5,13.4,30.38,ESE,113,0.0,5.0,62,0.00,,,0.00,HR-IXPWINDi_r2_v1.2.,2013-02-02 15:00:00,
2013-02-02 10:05:00,24.6,13.5,30.38,East,97,0.0,5.0,62,0.00,,,0.00,HR-IXPWINDi_r2_v1.2.,2013-02-02 15:05:00,
2013-02-02 10:10:00,24.7,13.6,30.38,East,97,0.0,3.0,62,0.00,,,0.00,HR-IXPWINDi_r2_v1.2.,2013-02-02 15:10:00,
2013-02-02 10:16:00,25.1,13.9,30.37,East,97,1.0,3.0,62,0.00,,,0.00,HR-IXPWINDi_r2_v1.2.,2013-02-02 15:16:00,
2013-02-02 10:21:00,25.3,14.1,30.37,East,101,2.0,3.0,62,0.00,,,0.00,HR-IXPWINDi_r2_v1.2.,2013-02-02 15:21:00,
2013-02-02 10:26:00,25.6,13.7,30.37,ESE,104,0.0,3.0,60,0.00,,,0.00,HR-IXPWINDi_r2_v1.2.,2013-02-02 15:26:00,
2013-02-02 10:31:00,25.9,14.3,30.37,ESE,104,0.0,2.0,61,0.00,,,0.00,HR-IXPWINDi_r2_v1.2.,2013-02-02 15:31:00,
2013-02-02 10:37:00,26.3,14.7,30.36,East,100,0.0,2.0,61,0.00,,,0.00,HR-IXPWINDi_r2_v1.2.,2013-02-02 15:37:00,
2013-02-02 10:42:00,26.9,15.3,30.36,SE,145,1.0,2.0,61,0.00,,,0.00,HR-IXPWINDi_r2_v1.2.,2013-02-02 15:42:00,
2013-02-02 10:47:00,27.4,15.0,30.35,ESE,117,1.0,2.0,59,0.00,,,0.00,HR-IXPWINDi_r2_v1.2.,2013-02-02 15:47:00,
2013-02-02 10:52:00,27.9,14.7,30.35,East,89,0.0,2.0,57,0.00,,,0.00,HR-IXPWINDi_r2_v1.2.,2013-02-02 15:52:00,
2013-02-02 10:57:00,28.1,14.5,30.34,NE,55,1.0,2.0,56,0.00,,,0.00,HR-IXPWINDi_r2_v1.2.,2013-02-02 15:57:00,
2013-02-02 11:02:00,28.0,14.8,30.34,East,101,0.0,3.0,57,0.00,,,0.00,HR-IXPWINDi_r2_v1.2.,2013-02-02 16:02:00,
2013-02-02 11:07:00,28.4,14.7,30.33,East,98,1.0,4.0,56,0.00,,,0.00,HR-IXPWINDi_r2_v1.2.,2013-02-02 16:07:00,
2013-02-02 11:13:00,28.7,15.0,30.33,East,83,2.0,4.0,56,0.00,,,0.00,HR-IXPWINDi_r2_v1.2.,2013-02-02 16:13:00,
2013-02-02 11:18:00,29.0,15.3,30.33,ESE,115,0.0,3.0,56,0.00,,,0.00,HR-IXPWINDi_r2_v1.2.,2013-02-02 16:18:00,
2013-02-02 11:23:00,29.2,15.1,30.33,ESE,104,1.0,3.0,55,0.00,,,0.00,HR-IXPWINDi_r2_v1.2.,2013-02-02 16:23:00,
2013-02-02 11:28:00,29.5,15.3,30.32,SSE,155,2.0,3.0,55,0.00,,,0.00,HR-IXPWINDi_r2_v1.2.,2013-02-02 16:28:00,
2013-02-02 11:33:00,29.7,14.3,30.31,East,84,3.0,5.0,52,0.00,,,0.00,HR-IXPWINDi_r2_v1.2.,2013-02-02 16:33:00,
2013-02-02 11:38:00,29.7,15.1,30.30,East,94,2.0,5.0,54,0.00,,,0.00,HR-IXPWINDi_r2_v1.2.,2013-02-02 16:38:00,
2013-02-02 11:44:00,30.2,15.2,30.30,South,185,1.0,5.0,53,0.00,,,0.00,HR-IXPWINDi_r2_v1.2.,2013-02-02 16:44:00,
2013-02-02 11:49:00,30.6,14.6,30.30,ESE,106,1.0,3.0,51,0.00,,,0.00,HR-IXPWINDi_r2_v1.2.,2013-02-02 16:49:00,
2013-02-02 11:54:00,30.6,14.6,30.29,ENE,66,1.0,3.0,51,0.00,,,0.00,HR-IXPWINDi_r2_v1.2.,2013-02-02 16:54:00,
2013-02-02 11:59:00,30.6,15.5,30.29,ENE,61,0.0,3.0,53,0.00,,,0.00,HR-IXPWINDi_r2_v1.2.,2013-02-02 16:59:00,
2013-02-02 12:04:00,30.9,15.8,30.29,NE,55,2.0,3.0,53,0.00,,,0.00,HR-IXPWINDi_r2_v1.2.,2013-02-02 17:04:00,
2013-02-02 12:09:00,31.1,15.5,30.29,SW,217,0.0,4.0,52,0.00,,,0.00,HR-IXPWINDi_r2_v1.2.,2013-02-02 17:09:00,
2013-02-02 12:14:00,31.1,16.4,30.28,ESE,123,0.0,4.0,54,0.00,,,0.00,HR-IXPWINDi_r2_v1.2.,2013-02-02 17:14:00,
2013-02-02 12:19:00,31.1,15.5,30.28,North,10,2.0,4.0,52,0.00,,,0.00,HR-IXPWINDi_r2_v1.2.,2013-02-02 17:19:00,
2013-02-02 12:25:00,31.1,15.5,30.27,East,84,1.0,4.0,52,0.00,,,0.00,HR-IXPWINDi_r2_v1.2.,2013-02-02 17:25:00,
2013-02-02 12:30:00,31.2,16.1,30.27,East,84,0.0,2.0,53,0.00,,,0.00,HR-IXPWINDi_r2_v1.2.,2013-02-02 17:30:00,
2013-02-02 12:35:00,31.4,15.8,30.27,East,83,1.0,3.0,52,0.00,,,0.00,HR-IXPWINDi_r2_v1.2.,2013-02-02 17:35:00,
2013-02-02 12:40:00,31.7,16.1,30.26,East,93,0.0,3.0,52,0.00,,,0.00,HR-IXPWINDi_r2_v1.2.,2013-02-02 17:40:00,
2013-02-02 12:45:00,32.0,15.9,30.26,ESE,111,0.0,3.0,51,0.00,,,0.00,HR-IXPWINDi_r2_v1.2.,2013-02-02 17:45:00,
2013-02-02 12:50:00,32.1,16.0,30.25,East,79,0.0,3.0,51,0.00,,,0.00,HR-IXPWINDi_r2_v1.2.,2013-02-02 17:50:00,
2013-02-02 12:55:00,32.4,18.0,30.25,ENE,76,0.0,2.0,55,0.00,,,0.00,HR-IXPWINDi_r2_v1.2.,2013-02-02 17:55:00,
2013-02-02 13:00:00,32.9,18.1,30.25,East,82,0.0,2.0,54,0.00,,,0.00,HR-IXPWINDi_r2_v1.2.,2013-02-02 18:00:00,
2013-02-02 13:05:00,33.3,17.1,30.24,SSW,201,0.0,3.0,51,0.00,,,0.00,HR-IXPWINDi_r2_v1.2.,2013-02-02 18:05:00,
2013-02-02 13:11:00,33.5,16.9,30.24,East,84,0.0,3.0,50,0.00,,,0.00,HR-IXPWINDi_r2_v1.2.,2013-02-02 18:11:00,
2013-02-02 13:16:00,33.7,17.1,30.24,ENE,70,1.0,3.0,50,0.00,,,0.00,HR-IXPWINDi_r2_v1.2.,2013-02-02 18:16:00,
2013-02-02 13:21:00,33.9,16.8,30.23,ESE,114,2.0,3.0,49,0.00,,,0.00,HR-IXPWINDi_r2_v1.2.,2013-02-02 18:21:00,
2013-02-02 13:26:00,33.8,16.7,30.23,ESE,114,0.0,3.0,49,0.00,,,0.00,HR-IXPWINDi_r2_v1.2.,2013-02-02 18:26:00,
2013-02-02 13:31:00,33.8,17.1,30.23,ESE,114,0.0,2.0,50,0.00,,,0.00,HR-IXPWINDi_r2_v1.2.,2013-02-02 18:31:00,
2013-02-02 13:36:00,33.7,16.6,30.23,ESE,114,0.0,2.0,49,0.00,,,0.00,HR-IXPWINDi_r2_v1.2.,2013-02-02 18:36:00,
2013-02-02 13:42:00,33.7,16.6,30.23,ESE,114,0.0,2.0,49,0.00,,,0.00,HR-IXPWINDi_r2_v1.2.,2013-02-02 18:42:00,
2013-02-02 13:47:00,33.7,16.6,30.23,ESE,114,1.0,2.0,49,0.00,,,0.00,HR-IXPWINDi_r2_v1.2.,2013-02-02 18:47:00,
2013-02-02 13:52:00,33.9,16.3,30.22,ESE,111,1.0,2.0,48,0.00,,,0.00,HR-IXPWINDi_r2_v1.2.,2013-02-02 18:52:00,
2013-02-02 13:57:00,34.1,17.0,30.22,SSW,198,1.0,2.0,49,0.00,,,0.00,HR-IXPWINDi_r2_v1.2.,2013-02-02 18:57:00,
2013-02-02 14:02:00,34.1,17.0,30.22,SSW,211,0.0,2.0,49,0.00,,,0.00,HR-IXPWINDi_r2_v1.2.,2013-02-02 19:02:00,
2013-02-02 14:07:00,34.3,17.1,30.22,SSW,210,0.0,2.0,49,0.00,,,0.00,HR-IXPWINDi_r2_v1.2.,2013-02-02 19:07:00,
2013-02-02 14:13:00,34.4,18.2,30.22,SSW,210,0.0,1.0,51,0.00,,,0.00,HR-IXPWINDi_r2_v1.2.,2013-02-02 19:13:00,
2013-02-02 14:18:00,34.5,17.3,30.21,ENE,68,0.0,2.0,49,0.00,,,0.00,HR-IXPWINDi_r2_v1.2.,2013-02-02 19:18:00,
2013-02-02 14:23:00,34.6,19.2,30.21,East,101,2.0,3.0,53,0.00,,,0.00,HR-IXPWINDi_r2_v1.2.,2013-02-02 19:23:00,
2013-02-02 14:28:00,34.8,19.0,30.21,ESE,109,0.0,3.0,52,0.00,,,0.00,HR-IXPWINDi_r2_v1.2.,2013-02-02 19:28:00,
2013-02-02 14:33:00,34.9,18.6,30.21,East,92,2.0,3.0,51,0.00,,,0.00,HR-IXPWINDi_r2_v1.2.,2013-02-02 19:33:00,
2013-02-02 14:38:00,34.6,21.3,30.20,ESE,104,0.0,5.0,58,0.00,,,0.00,HR-IXPWINDi_r2_v1.2.,2013-02-02 19:38:00,
2013-02-02 14:43:00,34.6,22.9,30.20,East,88,1.0,5.0,62,0.00,,,0.00,HR-IXPWINDi_r2_v1.2.,2013-02-02 19:43:00,
2013-02-02 14:48:00,34.3,23.0,30.20,ESE,108,2.0,6.0,63,0.00,,,0.00,HR-IXPWINDi_r2_v1.2.,2013-02-02 19:48:00,
2013-02-02 14:54:00,34.1,25.0,30.19,South,190,0.0,6.0,69,0.00,,,0.00,HR-IXPWINDi_r2_v1.2.,2013-02-02 19:54:00,
2013-02-02 14:59:00,33.8,24.4,30.19,SSE,152,1.0,4.0,68,0.00,,,0.00,HR-IXPWINDi_r2_v1.2.,2013-02-02 19:59:00,
2013-02-02 15:04:00,33.5,24.4,30.19,SE,130,0.0,2.0,69,0.00,,,0.00,HR-IXPWINDi_r2_v1.2.,2013-02-02 20:04:00,
2013-02-02 15:09:00,33.4,24.7,30.19,ESE,109,0.0,2.0,70,0.00,,,0.00,HR-IXPWINDi_r2_v1.2.,2013-02-02 20:09:00,
2013-02-02 15:14:00,33.2,24.8,30.19,ESE,109,0.0,2.0,71,0.00,,,0.00,HR-IXPWINDi_r2_v1.2.,2013-02-02 20:14:00,
2013-02-02 15:20:00,33.0,25.0,30.18,ESE,109,0.0,1.0,72,0.00,,,0.00,HR-IXPWINDi_r2_v1.2.,2013-02-02 20:20:00,
2013-02-02 15:25:00,32.9,24.9,30.18,ESE,115,0.0,2.0,72,0.00,,,0.00,HR-IXPWINDi_r2_v1.2.,2013-02-02 20:25:00,
2013-02-02 15:30:00,32.9,25.2,30.18,ESE,109,1.0,3.0,73,0.00,,,0.00,HR-IXPWINDi_r2_v1.2.,2013-02-02 20:30:00,
2013-02-02 15:35:00,32.7,25.3,30.17,ESE,108,0.0,3.0,74,0.00,,,0.00,HR-IXPWINDi_r2_v1.2.,2013-02-02 20:35:00,
2013-02-02 15:41:00,32.6,25.5,30.17,ESE,108,0.0,2.0,75,0.00,,,0.00,HR-IXPWINDi_r2_v1.2.,2013-02-02 20:41:00,
2013-02-02 15:46:00,32.6,26.2,30.17,ESE,108,0.0,2.0,77,0.00,,,0.00,HR-IXPWINDi_r2_v1.2.,2013-02-02 20:46:00,
2013-02-02 15:51:00,32.5,27.0,30.17,East,98,0.0,3.0,80,0.00,,,0.00,HR-IXPWINDi_r2_v1.2.,2013-02-02 20:51:00,
2013-02-02 15:56:00,32.3,27.1,30.17,East,90,0.0,5.0,81,0.00,,,0.00,HR-IXPWINDi_r2_v1.2.,2013-02-02 20:56:00,
2013-02-02 16:01:00,32.2,27.3,30.17,East,84,1.0,5.0,82,0.00,,,0.00,HR-IXPWINDi_r2_v1.2.,2013-02-02 21:01:00,
2013-02-02 16:06:00,32.0,26.5,30.17,East,79,1.0,3.0,80,0.00,,,0.00,HR-IXPWINDi_r2_v1.2.,2013-02-02 21:06:00,
2013-02-02 16:11:00,31.9,26.7,30.17,East,101,0.0,3.0,81,0.00,,,0.00,HR-IXPWINDi_r2_v1.2.,2013-02-02 21:11:00,
2013-02-02 16:16:00,32.0,26.8,30.17,East,101,0.0,2.0,81,0.00,,,0.00,HR-IXPWINDi_r2_v1.2.,2013-02-02 21:16:00,
2013-02-02 16:22:00,32.0,26.5,30.16,East,101,0.0,1.0,80,0.00,,,0.00,HR-IXPWINDi_r2_v1.2.,2013-02-02 21:22:00,
2013-02-02 16:27:00,32.0,26.5,30.16,East,101,0.0,1.0,80,0.00,,,0.00,HR-IXPWINDi_r2_v1.2.,2013-02-02 21:27:00,
2013-02-02 16:32:00,32.0,26.2,30.15,East,101,0.0,1.0,79,0.00,,,0.00,HR-IXPWINDi_r2_v1.2.,2013-02-02 21:32:00,
2013-02-02 16:37:00,32.0,26.2,30.15,East,101,0.0,1.0,79,0.00,,,0.00,HR-IXPWINDi_r2_v1.2.,2013-02-02 21:37:00,
2013-02-02 16:43:00,32.0,26.2,30.15,East,101,0.0,1.0,79,0.00,,,0.00,HR-IXPWINDi_r2_v1.2.,2013-02-02 21:43:00,
2013-02-02 16:48:00,31.9,25.8,30.15,East,101,0.0,1.0,78,0.00,,,0.00,HR-IXPWINDi_r2_v1.2.,2013-02-02 21:48:00,
2013-02-02 16:53:00,32.0,25.9,30.15,East,101,0.0,1.0,78,0.00,,,0.00,HR-IXPWINDi_r2_v1.2.,2013-02-02 21:53:00,
2013-02-02 16:58:00,32.0,25.9,30.15,East,101,0.0,1.0,78,0.00,,,0.00,HR-IXPWINDi_r2_v1.2.,2013-02-02 21:58:00,
2013-02-02 17:03:00,32.0,26.2,30.15,East,101,0.0,0.0,79,0.00,,,0.00,HR-IXPWINDi_r2_v1.2.,2013-02-02 22:03:00,
2013-02-02 17:08:00,31.9,25.8,30.15,East,101,0.0,1.0,78,0.00,,,0.00,HR-IXPWINDi_r2_v1.2.,2013-02-02 22:08:00,
2013-02-02 17:14:00,31.8,25.7,30.15,East,101,0.0,1.0,78,0.00,,,0.00,HR-IXPWINDi_r2_v1.2.,2013-02-02 22:14:00,
2013-02-02 17:19:00,31.7,26.2,30.15,East,101,0.0,1.0,80,0.00,,,0.00,HR-IXPWINDi_r2_v1.2.,2013-02-02 22:19:00,
2013-02-02 17:24:00,31.6,26.1,30.14,East,101,0.0,1.0,80,0.00,,,0.00,HR-IXPWINDi_r2_v1.2.,2013-02-02 22:24:00,
2013-02-02 17:29:00,31.5,26.0,30.15,East,101,0.0,0.0,80,0.00,,,0.00,HR-IXPWINDi_r2_v1.2.,2013-02-02 22:29:00,
2013-02-02 17:35:00,31.4,26.2,30.14,East,101,0.0,0.0,81,0.00,,,0.00,HR-IXPWINDi_r2_v1.2.,2013-02-02 22:35:00,
2013-02-02 17:40:00,31.4,26.5,30.15,East,101,0.0,0.0,82,0.00,,,0.00,HR-IXPWINDi_r2_v1.2.,2013-02-02 22:40:00,
2013-02-02 17:45:00,31.3,26.7,30.15,East,101,0.0,1.0,83,0.00,,,0.00,HR-IXPWINDi_r2_v1.2.,2013-02-02 22:45:00,
2013-02-02 17:50:00,31.2,26.9,30.14,East,101,0.0,1.0,84,0.00,,,0.00,HR-IXPWINDi_r2_v1.2.,2013-02-02 22:50:00,
2013-02-02 17:55:00,31.0,27.0,30.15,East,101,0.0,2.0,85,0.00,,,0.00,HR-IXPWINDi_r2_v1.2.,2013-02-02 22:55:00,
2013-02-02 18:00:00,30.8,27.1,30.15,East,101,0.0,2.0,86,0.00,,,0.00,HR-IXPWINDi_r2_v1.2.,2013-02-02 23:00:00,
2013-02-02 18:06:00,30.7,27.6,30.14,East,101,0.0,1.0,88,0.00,,,0.00,HR-IXPWINDi_r2_v1.2.,2013-02-02 23:06:00,
2013-02-02 18:11:00,30.5,27.6,30.15,East,101,0.0,1.0,89,0.00,,,0.00,HR-IXPWINDi_r2_v1.2.,2013-02-02 23:11:00,
2013-02-02 18:16:00,30.4,27.5,30.14,East,101,0.0,0.0,89,0.00,,,0.00,HR-IXPWINDi_r2_v1.2.,2013-02-02 23:16:00,
2013-02-02 18:21:00,30.3,27.7,30.14,East,101,0.0,0.0,90,0.00,,,0.00,HR-IXPWINDi_r2_v1.2.,2013-02-02 23:21:00,
2013-02-02 18:26:00,30.3,27.7,30.15,East,101,0.0,0.0,90,0.00,,,0.00,HR-IXPWINDi_r2_v1.2.,2013-02-02 23:26:00,
2013-02-02 18:31:00,30.3,28.0,30.15,East,101,0.0,0.0,91,0.00,,,0.00,HR-IXPWINDi_r2_v1.2.,2013-02-02 23:31:00,
2013-02-02 18:36:00,30.2,27.9,30.15,East,101,0.0,0.0,91,0.00,,,0.00,HR-IXPWINDi_r2_v1.2.,2013-02-02 23:36:00,
2013-02-02 18:42:00,30.2,28.1,30.15,East,101,0.0,0.0,92,0.00,,,0.00,HR-IXPWINDi_r2_v1.2.,2013-02-02 23:42:00,
2013-02-02 18:47:00,30.2,28.1,30.15,East,101,0.0,0.0,92,0.00,,,0.00,HR-IXPWINDi_r2_v1.2.,2013-02-02 23:47:00,
2013-02-02 18:52:00,30.1,28.0,30.15,East,101,0.0,0.0,92,0.00,,,0.00,HR-IXPWINDi_r2_v1.2.,2013-02-02 23:52:00,
2013-02-02 18:57:00,30.1,28.3,30.15,East,101,0.0,0.0,93,0.00,,,0.00,HR-IXPWINDi_r2_v1.2.,2013-02-02 23:57:00,
2013-02-02 19:03:00,30.1,28.3,30.14,East,101,0.0,0.0,93,0.00,,,0.00,HR-IXPWINDi_r2_v1.2.,2013-02-03 00:03:00,
2013-02-02 19:08:00,30.1,28.3,30.14,East,101,0.0,1.0,93,0.00,,,0.00,HR-IXPWINDi_r2_v1.2.,2013-02-03 00:08:00,
2013-02-02 19:13:00,30.1,28.3,30.14,East,101,0.0,1.0,93,0.00,,,0.00,HR-IXPWINDi_r2_v1.2.,2013-02-03 00:13:00,
2013-02-02 19:18:00,30.2,28.4,30.13,East,101,0.0,1.0,93,0.00,,,0.00,HR-IXPWINDi_r2_v1.2.,2013-02-03 00:18:00,
2013-02-02 19:24:00,30.1,28.3,30.13,East,101,0.0,1.0,93,0.00,,,0.00,HR-IXPWINDi_r2_v1.2.,2013-02-03 00:24:00,
2013-02-02 19:29:00,30.1,28.3,30.13,East,101,0.0,0.0,93,0.00,,,0.00,HR-IXPWINDi_r2_v1.2.,2013-02-03 00:29:00,
2013-02-02 19:34:00,30.1,28.6,30.13,East,101,0.0,0.0,94,0.00,,,0.00,HR-IXPWINDi_r2_v1.2.,2013-02-03 00:34:00,
2013-02-02 19:39:00,30.1,28.6,30.13,East,101,0.0,0.0,94,0.00,,,0.00,HR-IXPWINDi_r2_v1.2.,2013-02-03 00:39:00,
2013-02-02 19:44:00,30.0,28.2,30.13,East,101,0.0,0.0,93,0.00,,,0.00,HR-IXPWINDi_r2_v1.2.,2013-02-03 00:44:00,
2013-02-02 19:49:00,30.0,28.2,30.13,East,101,0.0,0.0,93,0.00,,,0.00,HR-IXPWINDi_r2_v1.2.,2013-02-03 00:49:00,
2013-02-02 19:54:00,30.0,28.5,30.13,East,101,0.0,0.0,94,0.00,,,0.00,HR-IXPWINDi_r2_v1.2.,2013-02-03 00:54:00,
2013-02-02 20:00:00,30.0,28.5,30.13,East,101,0.0,0.0,94,0.00,,,0.00,HR-IXPWINDi_r2_v1.2.,2013-02-03 01:00:00,
2013-02-02 20:05:00,29.9,28.4,30.13,East,101,0.0,0.0,94,0.00,,,0.00,HR-IXPWINDi_r2_v1.2.,2013-02-03 01:05:00,
2013-02-02 20:10:00,30.0,28.5,30.13,East,101,0.0,0.0,94,0.00,,,0.00,HR-IXPWINDi_r2_v1.2.,2013-02-03 01:10:00,
2013-02-02 20:15:00,29.9,28.4,30.12,East,101,0.0,0.0,94,0.00,,,0.00,HR-IXPWINDi_r2_v1.2.,2013-02-03 01:15:00,
2013-02-02 20:20:00,29.9,28.4,30.12,East,101,0.0,0.0,94,0.00,,,0.00,HR-IXPWINDi_r2_v1.2.,2013-02-03 01:20:00,
2013-02-02 20:25:00,29.9,28.4,30.12,East,101,0.0,0.0,94,0.00,,,0.00,HR-IXPWINDi_r2_v1.2.,2013-02-03 01:25:00,
2013-02-02 20:31:00,29.9,28.4,30.12,East,101,0.0,0.0,94,0.00,,,0.00,HR-IXPWINDi_r2_v1.2.,2013-02-03 01:31:00,
2013-02-02 20:36:00,29.9,28.4,30.12,East,101,0.0,0.0,94,0.00,,,0.00,HR-IXPWINDi_r2_v1.2.,2013-02-03 01:36:00,
2013-02-02 20:41:00,29.9,28.4,30.12,East,101,0.0,0.0,94,0.00,,,0.00,HR-IXPWINDi_r2_v1.2.,2013-02-03 01:41:00,
2013-02-02 20:46:00,29.9,28.4,30.12,East,101,0.0,0.0,94,0.00,,,0.00,HR-IXPWINDi_r2_v1.2.,2013-02-03 01:46:00,
2013-02-02 20:51:00,29.9,28.4,30.12,East,101,0.0,0.0,94,0.00,,,0.00,HR-IXPWINDi_r2_v1.2.,2013-02-03 01:51:00,
2013-02-02 20:56:00,29.9,28.4,30.12,East,101,0.0,0.0,94,0.00,,,0.00,HR-IXPWINDi_r2_v1.2.,2013-02-03 01:56:00,
2013-02-02 21:01:00,29.9,28.4,30.11,East,101,0.0,0.0,94,0.00,,,0.00,HR-IXPWINDi_r2_v1.2.,2013-02-03 02:01:00,
2013-02-02 21:06:00,29.8,28.3,30.11,East,101,0.0,0.0,94,0.00,,,0.00,HR-IXPWINDi_r2_v1.2.,2013-02-03 02:06:00,
2013-02-02 21:12:00,29.7,28.2,30.11,East,101,0.0,0.0,94,0.00,,,0.00,HR-IXPWINDi_r2_v1.2.,2013-02-03 02:12:00,
2013-02-02 21:17:00,29.7,28.2,30.11,East,101,0.0,0.0,94,0.00,,,0.00,HR-IXPWINDi_r2_v1.2.,2013-02-03 02:17:00,
2013-02-02 21:22:00,29.6,28.1,30.11,East,101,0.0,0.0,94,0.00,,,0.00,HR-IXPWINDi_r2_v1.2.,2013-02-03 02:22:00,
2013-02-02 21:27:00,29.5,28.0,30.11,East,101,0.0,0.0,94,0.00,,,0.00,HR-IXPWINDi_r2_v1.2.,2013-02-03 02:27:00,
2013-02-02 21:32:00,29.4,27.9,30.11,East,101,0.0,0.0,94,0.00,,,0.00,HR-IXPWINDi_r2_v1.2.,2013-02-03 02:32:00,
2013-02-02 21:38:00,29.4,27.9,30.11,East,101,0.0,0.0,94,0.00,,,0.00,HR-IXPWINDi_r2_v1.2.,2013-02-03 02:38:00,
2013-02-02 21:43:00,29.3,27.8,30.11,East,101,0.0,0.0,94,0.00,,,0.00,HR-IXPWINDi_r2_v1.2.,2013-02-03 02:43:00,
2013-02-02 21:48:00,29.3,27.8,30.12,East,101,0.0,1.0,94,0.00,,,0.00,HR-IXPWINDi_r2_v1.2.,2013-02-03 02:48:00,
2013-02-02 21:53:00,29.4,27.9,30.11,East,101,0.0,1.0,94,0.00,,,0.00,HR-IXPWINDi_r2_v1.2.,2013-02-03 02:53:00,
2013-02-02 21:58:00,29.4,27.9,30.11,East,101,0.0,1.0,94,0.00,,,0.00,HR-IXPWINDi_r2_v1.2.,2013-02-03 02:58:00,
2013-02-02 22:04:00,29.4,27.9,30.11,East,101,0.0,0.0,94,0.00,,,0.00,HR-IXPWINDi_r2_v1.2.,2013-02-03 03:04:00,
2013-02-02 22:09:00,29.6,28.3,30.11,ESE,107,0.0,1.0,95,0.00,,,0.00,HR-IXPWINDi_r2_v1.2.,2013-02-03 03:09:00,
2013-02-02 22:14:00,29.7,28.2,30.11,NE,53,0.0,1.0,94,0.00,,,0.00,HR-IXPWINDi_r2_v1.2.,2013-02-03 03:14:00,
2013-02-02 22:19:00,29.8,28.3,30.11,NE,53,0.0,1.0,94,0.00,,,0.00,HR-IXPWINDi_r2_v1.2.,2013-02-03 03:19:00,
2013-02-02 22:24:00,29.9,28.4,30.11,North,5,0.0,2.0,94,0.00,,,0.00,HR-IXPWINDi_r2_v1.2.,2013-02-03 03:24:00,
2013-02-02 22:29:00,29.9,28.1,30.10,NNE,32,0.0,2.0,93,0.00,,,0.00,HR-IXPWINDi_r2_v1.2.,2013-02-03 03:29:00,
2013-02-02 22:35:00,30.1,28.3,30.10,NE,56,0.0,2.0,93,0.00,,,0.00,HR-IXPWINDi_r2_v1.2.,2013-02-03 03:35:00,
2013-02-02 22:40:00,30.3,28.5,30.10,North,355,1.0,2.0,93,0.00,,,0.00,HR-IXPWINDi_r2_v1.2.,2013-02-03 03:40:00,
2013-02-02 22:45:00,30.5,28.7,30.10,North,355,0.0,2.0,93,0.00,,,0.00,HR-IXPWINDi_r2_v1.2.,2013-02-03 03:45:00,
2013-02-02 22:50:00,30.6,28.8,30.10,North,355,0.0,2.0,93,0.00,,,0.00,HR-IXPWINDi_r2_v1.2.,2013-02-03 03:50:00,
2013-02-02 22:55:00,30.8,28.7,30.09,North,355,0.0,2.0,92,0.00,,,0.00,HR-IXPWINDi_r2_v1.2.,2013-02-03 03:55:00,
2013-02-02 23:00:00,30.8,28.7,30.09,North,355,0.0,2.0,92,0.00,,,0.00,HR-IXPWINDi_r2_v1.2.,2013-02-03 04:00:00,
2013-02-02 23:05:00,30.9,28.8,30.08,NNW,346,0.0,4.0,92,0.00,,,0.00,HR-IXPWINDi_r2_v1.2.,2013-02-03 04:05:00,
2013-02-02 23:10:00,31.1,29.0,30.08,NNW,328,1.0,4.0,92,0.00,,,0.00,HR-IXPWINDi_r2_v1.2.,2013-02-03 04:10:00,
2013-02-02 23:15:00,31.2,29.1,30.08,NNW,342,1.0,4.0,92,0.00,,,0.00,HR-IXPWINDi_r2_v1.2.,2013-02-03 04:15:00,
2013-02-02 23:21:00,31.2,28.9,30.08,NNW,341,0.0,4.0,91,0.00,,,0.00,HR-IXPWINDi_r2_v1.2.,2013-02-03 04:21:00,
2013-02-02 23:26:00,31.4,29.1,30.07,NW,325,0.0,2.0,91,0.00,,,0.00,HR-IXPWINDi_r2_v1.2.,2013-02-03 04:26:00,
2013-02-02 23:31:00,31.5,29.2,30.07,SE,146,0.0,4.0,91,0.00,,,0.00,HR-IXPWINDi_r2_v1.2.,2013-02-03 04:31:00,
2013-02-02 23:36:00,31.5,29.2,30.07,WNW,290,0.0,4.0,91,0.00,,,0.00,HR-IXPWINDi_r2_v1.2.,2013-02-03 04:36:00,
2013-02-02 23:42:00,31.6,29.0,30.07,NNE,12,0.0,5.0,90,0.00,,,0.00,HR-IXPWINDi_r2_v1.2.,2013-02-03 04:42:00,
2013-02-02 23:47:00,31.7,29.1,30.07,North,5,0.0,5.0,90,0.00,,,0.00,HR-IXPWINDi_r2_v1.2.,2013-02-03 04:47:00,
2013-02-02 23:52:00,31.7,29.1,30.07,North,5,0.0,2.0,90,0.00,,,0.00,HR-IXPWINDi_r2_v1.2.,2013-02-03 04:52:00,
2013-02-02 23:57:00,31.8,29.2,30.07,NW,315,0.0,2.0,90,0.00,,,0.00,HR-IXPWINDi_r2_v1.2.,2013-02-03 04:57:00,